Terminal Aerodrome Forecast
Issued by NWS

Home | Current Version | Previous Version | Text Only | Print | Product List | Glossary On
Versions: 1 2 3 4 5 6 7 8 9 10 11 12 13 14 15
000
FTUS43 KDTX 282338
TAFMBS
TAF
KMBS 282338Z 2900/2924 03007KT P6SM SCT080 OVC150
     FM290400 03007KT 6SM -SHRA OVC040
     FM290800 03010KT 6SM -SHRA BR OVC015
     FM291600 06013KT 6SM -SHRA OVC025
     FM292200 03007KT 3SM -SHRA BR OVC015=

USA.gov is the U.S. government's official web portal to all federal, state and local government web resources and services.